Time;durP1;ratioP1;P1;durP2;ratioP2;P2;SDS_P1;SDS_P2;PMS_P1;PMS_P2;Temp;Humidity;BMP_temperature;BMP_pressure;BME280_temperature;BME280_humidity;BME280_pressure;Samples;Min_cycle;Max_cycle;Signal;HPM_P1;HPM_P2
2023/05/26 00:00:09;;;;;;;35.80;21.00;;;;;;;10.19;74.23;100972.11;130162;1254;114715;-62
2023/05/26 00:03:31;;;;;;;33.10;20.00;;;;;;;10.16;74.48;100970.30;130340;1254;115241;-63
2023/05/26 00:06:34;;;;;;;30.60;19.50;;;;;;;10.12;74.34;100974.72;130307;1256;114747;-62
2023/05/26 00:09:36;;;;;;;34.50;20.90;;;;;;;10.08;74.47;100973.08;130204;1274;114779;-63
2023/05/26 00:12:39;;;;;;;26.40;18.80;;;;;;;10.05;74.63;100968.55;130235;1253;114778;-62
2023/05/26 00:15:41;;;;;;;32.30;20.60;;;;;;;10.00;74.67;100970.66;130235;1255;114689;-62
2023/05/26 00:18:43;;;;;;;33.50;20.30;;;;;;;9.97;74.65;100967.58;130143;1255;114700;-62
2023/05/26 00:21:45;;;;;;;30.00;20.00;;;;;;;9.93;74.92;100973.62;130469;1254;114881;-62
2023/05/26 00:24:48;;;;;;;29.20;19.60;;;;;;;9.89;74.96;100979.48;130197;1256;115147;-62
2023/05/26 00:27:50;;;;;;;33.70;19.50;;;;;;;9.85;75.09;100983.17;130428;1255;114875;-62
2023/05/26 00:30:53;;;;;;;29.80;18.50;;;;;;;9.81;75.19;100983.86;130560;1256;114700;-62
2023/05/26 00:33:55;;;;;;;28.10;18.30;;;;;;;9.78;75.15;100987.52;130275;1275;114696;-61
2023/05/26 00:36:57;;;;;;;28.80;18.90;;;;;;;9.74;75.20;100985.71;130158;1275;114811;-62
2023/05/26 00:39:59;;;;;;;30.60;19.00;;;;;;;9.71;75.18;100985.80;130139;1256;114739;-62
2023/05/26 00:43:01;;;;;;;27.30;18.80;;;;;;;9.69;75.44;100990.50;130268;1269;115411;-62
2023/05/26 00:46:03;;;;;;;26.30;17.90;;;;;;;9.70;75.84;100986.38;130261;1255;115307;-61
2023/05/26 00:49:05;;;;;;;27.20;17.30;;;;;;;9.72;75.86;100989.16;130134;1254;115177;-62
2023/05/26 00:52:08;;;;;;;29.50;18.10;;;;;;;9.75;76.08;100991.91;130286;1256;115296;-61
2023/05/26 00:55:10;;;;;;;31.30;17.80;;;;;;;9.78;76.23;100988.03;130266;1255;115037;-61
2023/05/26 00:58:12;;;;;;;24.40;17.10;;;;;;;9.83;76.32;100984.83;130451;1256;114812;-62
2023/05/26 01:01:16;;;;;;;28.10;18.00;;;;;;;9.88;76.41;100983.23;130234;1274;114807;-62
2023/05/26 01:04:18;;;;;;;29.10;19.40;;;;;;;9.94;76.72;100982.13;130252;1257;114753;-61
2023/05/26 01:07:21;;;;;;;22.60;18.00;;;;;;;10.00;76.83;100977.45;130471;1256;116548;-62
2023/05/26 01:10:24;;;;;;;25.70;18.00;;;;;;;10.07;76.83;100975.09;130045;1255;114793;-62
2023/05/26 01:13:30;;;;;;;22.20;16.50;;;;;;;10.12;77.26;100974.17;130083;1256;114680;-62
2023/05/26 01:16:39;;;;;;;26.40;18.80;;;;;;;10.18;77.11;100974.84;130017;1253;114806;-62
2023/05/26 01:20:08;;;;;;;30.50;18.00;;;;;;;10.25;77.47;100974.59;129718;1261;127223;-62
2023/05/26 01:23:25;;;;;;;24.20;17.10;;;;;;;10.31;77.31;100970.06;129966;1256;115325;-62
2023/05/26 01:26:42;;;;;;;27.50;16.80;;;;;;;10.39;77.62;100970.52;130245;1254;114764;-62
2023/05/26 01:29:45;;;;;;;25.80;17.20;;;;;;;10.46;77.88;100972.41;130032;1256;114665;-61
2023/05/26 01:32:48;;;;;;;26.10;17.40;;;;;;;10.53;78.16;100966.77;129965;1256;114842;-62
2023/05/26 01:35:50;;;;;;;25.40;17.10;;;;;;;10.60;77.99;100965.25;130057;1256;114767;-61
2023/05/26 01:38:53;;;;;;;27.50;17.90;;;;;;;10.68;78.38;100968.73;130248;1255;116438;-61
2023/05/26 01:42:20;;;;;;;28.90;18.20;;;;;;;10.74;78.07;100969.35;130329;1255;115240;-61
2023/05/26 01:45:25;;;;;;;29.70;17.20;;;;;;;10.82;78.11;100968.88;130037;1253;114747;-62
2023/05/26 01:48:30;;;;;;;25.00;17.30;;;;;;;10.88;77.74;100969.52;129893;1256;114796;-62
2023/05/26 01:51:34;;;;;;;32.30;17.20;;;;;;;10.94;78.14;100972.50;130248;1268;114700;-61
2023/05/26 01:54:42;;;;;;;27.30;17.20;;;;;;;10.99;78.06;100970.30;130209;1259;128270;-61
2023/05/26 01:57:46;;;;;;;22.30;16.10;;;;;;;11.05;78.21;100968.48;130253;1267;115148;-62
2023/05/26 02:00:48;;;;;;;25.70;16.00;;;;;;;11.10;78.40;100965.95;129732;1256;114715;-63
2023/05/26 02:03:50;;;;;;;27.00;17.10;;;;;;;11.15;78.62;100967.38;130117;1254;114844;-62
2023/05/26 02:06:54;;;;;;;22.30;16.10;;;;;;;11.22;78.92;100967.27;130200;1268;114855;-62
2023/05/26 02:09:57;;;;;;;27.80;17.40;;;;;;;11.28;78.57;100968.94;130146;1254;114720;-65
2023/05/26 02:13:00;;;;;;;27.60;16.50;;;;;;;11.35;78.39;100972.63;130434;1255;116349;-65
2023/05/26 02:16:02;;;;;;;27.40;16.40;;;;;;;11.41;78.43;100974.33;130506;1267;114774;-64
2023/05/26 02:19:04;;;;;;;27.50;15.70;;;;;;;11.47;78.23;100978.04;130187;1255;114792;-63
2023/05/26 02:22:06;;;;;;;22.70;16.00;;;;;;;11.51;78.12;100978.17;128174;1253;2956666;-62
2023/05/26 02:25:08;;;;;;;27.10;15.50;;;;;;;11.55;78.41;100980.00;130536;1255;114725;-65
2023/05/26 02:28:11;;;;;;;24.80;15.90;;;;;;;11.59;78.17;100981.27;130260;1259;115334;-62
2023/05/26 02:31:13;;;;;;;21.70;14.40;;;;;;;11.63;78.29;100984.33;130372;1254;115062;-64
2023/05/26 02:34:15;;;;;;;24.90;16.70;;;;;;;11.66;78.28;100985.42;130213;1253;115094;-63
2023/05/26 02:37:17;;;;;;;24.60;15.90;;;;;;;11.69;78.00;100987.79;130091;1253;116296;-63
2023/05/26 02:40:20;;;;;;;21.10;15.80;;;;;;;11.74;78.04;100993.90;130187;1256;114697;-63
2023/05/26 02:43:23;;;;;;;22.60;15.30;;;;;;;11.76;78.37;100994.84;130195;1256;115173;-62
2023/05/26 02:46:26;;;;;;;22.20;14.60;;;;;;;11.80;78.35;100996.85;130246;1265;115138;-62
2023/05/26 02:49:28;;;;;;;22.70;14.60;;;;;;;11.83;78.19;100997.06;130547;1252;114804;-61
2023/05/26 02:52:30;;;;;;;21.60;15.10;;;;;;;11.86;78.35;100998.34;129862;1274;128392;-63
2023/05/26 02:55:32;;;;;;;20.20;14.50;;;;;;;11.89;78.39;100997.70;130163;1253;115225;-63
2023/05/26 02:58:35;;;;;;;22.10;13.90;;;;;;;11.92;78.42;100995.41;130226;1254;114704;-63
2023/05/26 03:01:38;;;;;;;30.90;15.80;;;;;;;11.95;78.51;100992.80;130301;1256;114707;-62
2023/05/26 03:04:40;;;;;;;18.40;13.20;;;;;;;11.97;78.39;100996.27;130221;1274;114788;-63
2023/05/26 03:07:42;;;;;;;20.70;14.00;;;;;;;12.00;78.68;100994.03;130159;1274;114855;-63
2023/05/26 03:10:44;;;;;;;23.50;13.60;;;;;;;12.04;78.18;100992.25;130148;1254;114682;-63
2023/05/26 03:13:46;;;;;;;17.90;14.50;;;;;;;12.07;78.26;100993.18;129742;1258;128243;-63
2023/05/26 03:16:51;;;;;;;18.00;13.60;;;;;;;12.10;78.24;100996.07;129986;1259;114700;-62
2023/05/26 03:19:53;;;;;;;23.50;14.50;;;;;;;12.13;78.07;101003.98;129974;1253;114700;-61
2023/05/26 03:22:56;;;;;;;21.30;14.30;;;;;;;12.17;78.29;101006.88;130140;1255;114686;-61
2023/05/26 03:25:58;;;;;;;21.30;13.60;;;;;;;12.21;78.33;101000.98;130249;1268;114723;-62
2023/05/26 03:29:00;;;;;;;25.20;14.40;;;;;;;12.25;78.25;100999.73;130018;1274;114706;-62
2023/05/26 03:32:03;;;;;;;19.90;14.00;;;;;;;12.28;78.28;100995.44;130717;1255;114869;-62
2023/05/26 03:35:06;;;;;;;18.30;13.10;;;;;;;12.33;78.27;100998.10;130062;1261;114709;-62
2023/05/26 03:38:08;;;;;;;18.90;13.10;;;;;;;12.38;78.14;100996.45;130102;1256;114769;-62
2023/05/26 03:41:10;;;;;;;25.30;13.80;;;;;;;12.43;78.25;100997.80;130050;1254;114834;-64
2023/05/26 03:44:12;;;;;;;19.50;12.70;;;;;;;12.51;77.97;100998.02;130119;1256;115212;-64
2023/05/26 03:47:15;;;;;;;28.10;13.50;;;;;;;12.57;77.94;100998.62;130326;1274;114678;-62
2023/05/26 03:50:17;;;;;;;23.40;11.30;;;;;;;12.66;77.90;101002.84;130185;1252;115707;-64
2023/05/26 03:53:20;;;;;;;16.10;10.10;;;;;;;12.76;77.69;101002.02;130098;1274;128181;-64
2023/05/26 03:56:23;;;;;;;20.40;11.00;;;;;;;12.88;77.59;101001.84;130052;1255;115215;-63
2023/05/26 03:59:26;;;;;;;24.10;10.80;;;;;;;12.99;77.24;100999.50;130077;1255;115094;-64
2023/05/26 04:02:31;;;;;;;23.10;11.80;;;;;;;13.10;77.06;101003.80;130063;1256;114694;-62
2023/05/26 04:05:33;;;;;;;22.60;11.10;;;;;;;13.22;77.09;101009.13;130085;1259;115244;-64
2023/05/26 04:08:36;;;;;;;15.10;9.30;;;;;;;13.37;76.98;101012.02;129986;1264;114814;-64
2023/05/26 04:11:38;;;;;;;20.60;11.00;;;;;;;13.50;76.93;101014.78;130027;1257;114740;-63
2023/05/26 04:14:40;;;;;;;17.70;9.30;;;;;;;13.64;76.84;101017.34;130168;1255;114928;-62
2023/05/26 04:17:43;;;;;;;22.10;9.70;;;;;;;13.78;76.56;101016.07;130129;1258;114873;-62
2023/05/26 04:20:47;;;;;;;16.00;9.50;;;;;;;13.89;75.95;101020.89;130272;1274;115168;-62
2023/05/26 04:23:51;;;;;;;17.50;9.60;;;;;;;13.96;75.40;101021.59;130289;1253;114811;-62
2023/05/26 04:26:54;;;;;;;18.00;9.10;;;;;;;14.03;75.12;101024.13;130229;1254;128126;-62
2023/05/26 04:29:58;;;;;;;14.20;9.10;;;;;;;14.07;74.62;101027.32;130020;1274;114814;-63
2023/05/26 04:33:03;;;;;;;17.50;9.50;;;;;;;14.11;74.29;101032.31;130439;1256;114743;-63
2023/05/26 04:36:08;;;;;;;;;;;;;;;14.48;75.23;101029.80;130307;1253;114742;-62
2023/05/26 04:39:11;;;;;;;;;;;;;;;15.22;75.20;101027.22;130297;1253;114685;-63
2023/05/26 04:42:15;;;;;;;17.50;8.00;;;;;;;16.16;75.10;101029.95;130274;1256;114814;-62
2023/05/26 04:45:18;;;;;;;17.80;8.20;;;;;;;17.19;73.66;101024.60;130264;1256;114946;-63
2023/05/26 04:48:20;;;;;;;16.60;6.80;;;;;;;18.17;72.46;101025.81;130256;1254;115160;-62
2023/05/26 04:51:23;;;;;;;12.20;7.20;;;;;;;19.17;71.71;101032.42;130399;1254;115129;-62
2023/05/26 04:54:29;;;;;;;17.20;6.80;;;;;;;20.17;70.34;101034.11;130253;1254;114773;-62
2023/05/26 04:57:31;;;;;;;12.40;7.00;;;;;;;21.03;68.04;101030.43;130303;1256;128911;-63
2023/05/26 05:00:34;;;;;;;17.00;7.40;;;;;;;21.70;66.59;101028.14;130308;1256;114702;-63
2023/05/26 05:03:36;;;;;;;14.60;6.50;;;;;;;22.40;65.27;101026.31;130200;1264;114648;-62
2023/05/26 05:06:38;;;;;;;13.50;6.10;;;;;;;23.03;63.50;101025.86;130275;1256;114788;-63
2023/05/26 05:09:41;;;;;;;13.00;6.30;;;;;;;23.49;61.26;101020.77;130048;1257;115000;-66
2023/05/26 05:12:43;;;;;;;10.70;6.60;;;;;;;23.70;60.07;101019.59;130353;1275;114817;-66
2023/05/26 05:15:46;;;;;;;15.50;6.20;;;;;;;23.94;59.25;101023.70;130065;1255;114724;-64
2023/05/26 05:18:49;;;;;;;13.10;6.40;;;;;;;24.14;57.94;101021.29;130383;1253;115279;-61
2023/05/26 05:21:50;;;;;;;14.80;6.40;;;;;;;24.33;57.40;101021.13;130011;1274;115285;-62
2023/05/26 05:24:53;;;;;;;13.00;6.30;;;;;;;24.51;55.70;101024.66;130205;1259;115112;-64
2023/05/26 05:27:55;;;;;;;16.00;6.40;;;;;;;24.57;54.78;101030.71;130371;1256;114713;-64
2023/05/26 05:30:57;;;;;;;13.00;6.40;;;;;;;24.81;54.41;101031.30;130447;1274;115090;-65
2023/05/26 05:33:59;;;;;;;13.40;6.50;;;;;;;25.08;53.70;101039.79;130284;1274;114792;-62
2023/05/26 05:37:02;;;;;;;12.30;5.70;;;;;;;25.26;52.32;101041.27;130334;1253;114785;-65
2023/05/26 05:40:10;;;;;;;14.30;5.70;;;;;;;25.34;52.05;101048.55;130143;1255;119819;-65
2023/05/26 05:43:12;;;;;;;15.20;5.80;;;;;;;25.54;51.68;101050.97;130178;1260;114787;-65
2023/05/26 05:46:14;;;;;;;15.70;6.50;;;;;;;25.81;51.09;101050.23;130134;1255;114695;-63
2023/05/26 05:49:16;;;;;;;12.10;6.00;;;;;;;25.98;50.27;101051.95;130310;1253;114679;-64
2023/05/26 05:52:18;;;;;;;13.40;6.50;;;;;;;26.15;49.41;101057.54;130189;1257;114687;-62
2023/05/26 05:55:20;;;;;;;14.20;6.50;;;;;;;26.26;49.13;101055.90;130044;1264;115171;-64
2023/05/26 05:58:22;;;;;;;15.10;5.40;;;;;;;26.37;47.66;101060.06;130244;1253;114699;-61
2023/05/26 06:01:24;;;;;;;14.60;5.50;;;;;;;26.32;47.39;101062.37;130079;1274;119279;-65
2023/05/26 06:04:26;;;;;;;16.60;5.90;;;;;;;26.38;47.08;101063.05;130250;1274;114967;-64
2023/05/26 06:07:28;;;;;;;14.00;5.70;;;;;;;26.48;46.75;101063.83;130292;1274;114746;-65
2023/05/26 06:10:30;;;;;;;12.20;5.80;;;;;;;26.48;46.12;101066.20;130050;1267;114709;-65
2023/05/26 06:13:35;;;;;;;16.70;5.50;;;;;;;26.17;45.40;101069.95;130113;1272;114697;-65
2023/05/26 06:16:37;;;;;;;11.20;5.20;;;;;;;25.95;45.45;101070.96;130235;1274;114755;-64
2023/05/26 06:19:39;;;;;;;11.50;5.30;;;;;;;25.84;45.39;101078.42;130319;1274;114616;-65
2023/05/26 06:22:42;;;;;;;15.30;5.90;;;;;;;25.86;44.92;101079.91;130120;1264;120024;-64
2023/05/26 06:25:44;;;;;;;11.10;4.70;;;;;;;25.87;44.68;101079.14;130221;1253;114716;-63
2023/05/26 06:28:46;;;;;;;13.60;5.90;;;;;;;25.76;43.89;101081.23;130159;1255;115299;-64
2023/05/26 06:31:48;;;;;;;16.10;5.90;;;;;;;25.72;44.09;101081.37;130187;1257;115141;-63
2023/05/26 06:34:50;;;;;;;16.30;6.90;;;;;;;25.80;44.04;101076.29;130051;1264;115022;-66
2023/05/26 06:37:53;;;;;;;16.60;7.00;;;;;;;25.84;44.08;101078.67;130150;1259;114791;-65
2023/05/26 06:40:55;;;;;;;17.30;6.40;;;;;;;25.88;43.84;101081.59;130065;1256;114773;-63
2023/05/26 06:43:58;;;;;;;16.70;6.30;;;;;;;25.99;43.70;101079.92;130112;1264;114680;-66
2023/05/26 06:47:00;;;;;;;16.20;6.90;;;;;;;26.15;43.60;101077.33;130076;1259;115177;-65
2023/05/26 06:50:03;;;;;;;18.30;5.60;;;;;;;26.35;43.12;101082.74;130135;1255;114926;-65
2023/05/26 06:53:05;;;;;;;22.40;7.80;;;;;;;26.49;42.32;101079.09;130250;1256;114734;-65
2023/05/26 06:56:07;;;;;;;16.70;6.00;;;;;;;26.62;41.90;101075.26;130171;1253;114705;-65
2023/05/26 06:59:09;;;;;;;16.10;6.00;;;;;;;26.75;41.61;101083.06;130020;1256;114742;-65
2023/05/26 07:02:11;;;;;;;15.20;5.70;;;;;;;26.94;41.53;101084.35;129968;1272;115235;-65
2023/05/26 07:05:14;;;;;;;16.30;5.90;;;;;;;27.06;40.63;101080.27;130043;1257;114722;-66
2023/05/26 07:08:16;;;;;;;17.10;7.10;;;;;;;27.13;40.16;101086.70;129996;1255;116560;-65
2023/05/26 07:11:18;;;;;;;17.30;6.10;;;;;;;27.29;40.24;101086.23;130128;1256;115307;-66
2023/05/26 07:14:20;;;;;;;14.90;5.50;;;;;;;27.42;39.85;101087.28;130270;1255;114739;-65
2023/05/26 07:17:22;;;;;;;16.60;5.30;;;;;;;27.50;39.20;101089.70;130090;1257;114674;-66
2023/05/26 07:20:24;;;;;;;15.20;5.90;;;;;;;27.64;38.64;101095.57;129987;1275;116373;-62
2023/05/26 07:23:26;;;;;;;16.80;5.10;;;;;;;27.81;38.58;101092.55;130199;1272;114738;-63
2023/05/26 07:26:28;;;;;;;14.40;5.50;;;;;;;28.10;38.34;101092.50;129938;1274;119852;-62
2023/05/26 07:29:32;;;;;;;17.20;5.50;;;;;;;28.35;37.74;101095.80;130174;1255;114785;-62
2023/05/26 07:32:34;;;;;;;16.30;6.60;;;;;;;28.48;37.56;101095.10;130219;1256;114713;-63
2023/05/26 07:35:36;;;;;;;17.70;6.50;;;;;;;28.61;36.96;101096.38;130121;1274;114798;-63
2023/05/26 07:38:38;;;;;;;17.00;6.00;;;;;;;28.40;36.06;101097.96;130283;1265;114767;-64
2023/05/26 07:41:40;;;;;;;16.90;5.70;;;;;;;28.12;35.85;101100.19;130735;1256;114767;-64
2023/05/26 07:44:42;;;;;;;18.00;6.90;;;;;;;27.98;36.46;101102.48;130443;1257;114705;-63
2023/05/26 07:47:44;;;;;;;17.20;6.80;;;;;;;28.08;36.69;101104.35;130443;1266;114760;-63
2023/05/26 07:50:46;;;;;;;12.70;5.50;;;;;;;28.19;36.28;101101.42;130428;1274;115119;-63
2023/05/26 07:53:48;;;;;;;12.90;4.60;;;;;;;28.24;36.13;101096.91;130398;1274;115164;-64
2023/05/26 07:56:49;;;;;;;11.30;4.60;;;;;;;28.20;36.00;101097.16;130465;1256;114692;-63
2023/05/26 07:59:51;;;;;;;40.90;8.30;;;;;;;28.36;35.74;101104.30;130245;1253;114691;-64
2023/05/26 08:02:54;;;;;;;19.40;4.70;;;;;;;28.47;35.11;101105.98;130512;1264;114764;-63
2023/05/26 08:05:56;;;;;;;11.90;4.50;;;;;;;28.48;34.81;101100.54;130472;1274;115147;-63
2023/05/26 08:08:58;;;;;;;13.90;4.70;;;;;;;28.57;34.82;101101.60;130468;1274;126888;-63
2023/05/26 08:12:00;;;;;;;14.00;4.50;;;;;;;28.64;34.22;101102.78;130541;1263;114737;-64
2023/05/26 08:15:04;;;;;;;12.70;4.10;;;;;;;28.50;33.85;101108.73;130414;1274;114726;-64
2023/05/26 08:18:06;;;;;;;;;;;;;;;28.36;33.52;101111.34;130631;1256;115138;-63
2023/05/26 08:21:08;;;;;;;10.70;4.30;;;;;;;28.16;33.62;101112.77;130681;1264;115071;-62
2023/05/26 08:24:10;;;;;;;15.80;4.90;;;;;;;28.03;33.55;101116.05;130061;1275;114697;-63
2023/05/26 08:27:12;;;;;;;9.90;4.20;;;;;;;27.92;33.48;101113.72;129970;1275;114865;-63
2023/05/26 08:30:14;;;;;;;14.60;4.40;;;;;;;27.87;33.21;101113.34;130031;1266;114703;-64
2023/05/26 08:33:17;;;;;;;13.60;4.80;;;;;;;27.78;33.04;101115.29;130109;1275;115073;-63
2023/05/26 08:36:19;;;;;;;13.30;4.80;;;;;;;27.58;32.96;101115.66;130119;1275;114736;-65
2023/05/26 08:39:21;;;;;;;12.90;4.80;;;;;;;27.45;33.16;101112.41;130218;1258;114690;-63
2023/05/26 08:42:31;;;;;;;16.50;4.60;;;;;;;27.46;33.40;101114.00;130027;1275;114701;-63
2023/05/26 08:45:34;;;;;;;13.30;5.50;;;;;;;27.48;33.37;101115.04;129707;1274;114853;-62
2023/05/26 08:48:39;;;;;;;12.30;5.30;;;;;;;27.54;33.20;101110.19;130048;1275;115076;-62
2023/05/26 08:51:45;;;;;;;13.40;5.20;;;;;;;27.53;33.04;101107.15;130059;1267;115155;-62
2023/05/26 08:54:49;;;;;;;17.40;5.10;;;;;;;27.41;33.18;101108.70;130095;1265;114709;-63
2023/05/26 08:57:51;;;;;;;;;;;;;;;27.34;33.45;101105.76;129804;1260;114741;-62
2023/05/26 09:00:53;;;;;;;13.90;4.50;;;;;;;27.31;33.46;101097.95;130055;1265;115304;-63
2023/05/26 09:03:55;;;;;;;13.00;5.20;;;;;;;27.25;33.49;101096.98;130108;1257;114787;-62
2023/05/26 09:06:58;;;;;;;11.20;4.20;;;;;;;27.10;33.32;101093.39;130103;1256;120296;-62
2023/05/26 09:10:26;;;;;;;16.20;5.40;;;;;;;26.88;33.34;101095.56;130202;1275;114725;-62
2023/05/26 09:13:30;;;;;;;13.90;4.40;;;;;;;26.55;33.51;101098.27;130076;1275;114722;-63
2023/05/26 09:16:32;;;;;;;15.10;4.70;;;;;;;26.30;33.54;101095.96;130039;1260;116448;-62
2023/05/26 09:19:34;;;;;;;14.50;5.10;;;;;;;26.28;34.08;101093.59;130166;1275;114700;-63
2023/05/26 09:22:38;;;;;;;15.40;4.70;;;;;;;26.19;34.15;101092.27;130164;1275;114707;-62
2023/05/26 09:25:41;;;;;;;14.70;4.70;;;;;;;26.00;34.24;101087.22;130027;1275;119209;-63
2023/05/26 09:28:49;;;;;;;11.90;4.60;;;;;;;25.99;34.67;101083.91;130303;1275;115151;-62
2023/05/26 09:31:52;;;;;;;16.80;4.90;;;;;;;25.99;34.69;101080.68;130037;1257;114933;-63
2023/05/26 09:35:01;;;;;;;14.70;4.90;;;;;;;25.89;34.39;101078.92;130176;1257;114674;-62
2023/05/26 09:38:08;;;;;;;12.00;4.40;;;;;;;25.73;34.32;101078.88;130156;1258;114693;-64
2023/05/26 09:41:10;;;;;;;14.10;4.70;;;;;;;25.71;34.50;101081.46;130390;1258;120198;-63
2023/05/26 09:44:16;;;;;;;12.70;5.60;;;;;;;25.52;34.66;101084.76;130224;1274;114698;-62
2023/05/26 09:47:22;;;;;;;18.10;4.90;;;;;;;25.32;35.12;101088.02;130223;1263;114830;-65
2023/05/26 09:50:24;;;;;;;13.00;4.60;;;;;;;25.19;35.23;101085.19;130091;1275;115064;-66
2023/05/26 09:53:26;;;;;;;12.80;4.60;;;;;;;24.95;34.87;101088.42;130771;1272;115347;-63
2023/05/26 09:56:34;;;;;;;14.90;5.30;;;;;;;24.80;35.41;101084.05;130228;1256;114703;-64
2023/05/26 09:59:40;;;;;;;14.00;4.40;;;;;;;24.75;35.74;101082.16;130158;1274;115218;-64
2023/05/26 10:02:42;;;;;;;12.80;4.40;;;;;;;24.64;35.41;101087.01;129942;1260;115125;-62
2023/05/26 10:05:47;;;;;;;12.50;4.00;;;;;;;24.46;35.34;101085.38;130297;1255;114712;-62
2023/05/26 10:08:52;;;;;;;12.20;4.30;;;;;;;24.38;35.58;101086.21;130196;1257;114714;-62
2023/05/26 10:11:58;;;;;;;13.50;4.10;;;;;;;24.31;35.56;101088.70;130180;1255;127771;-63
2023/05/26 10:15:02;;;;;;;9.90;3.70;;;;;;;24.06;34.28;101092.70;130126;1251;114745;-66
2023/05/26 10:18:07;;;;;;;9.20;3.20;;;;;;;23.73;34.08;101091.70;130189;1251;114694;-63
2023/05/26 10:21:11;;;;;;;13.80;3.80;;;;;;;23.44;33.02;101095.27;130168;1263;114786;-65
2023/05/26 10:24:28;;;;;;;7.80;3.10;;;;;;;23.21;33.06;101090.75;130164;1275;114770;-66
2023/05/26 10:28:05;;;;;;;7.30;2.90;;;;;;;23.11;31.62;101091.48;130140;1256;128257;-64
2023/05/26 10:31:08;;;;;;;8.80;3.80;;;;;;;22.99;32.29;101098.34;130145;1266;115179;-63
2023/05/26 10:34:35;;;;;;;6.70;3.20;;;;;;;22.94;31.66;101093.90;130217;1251;114773;-62
2023/05/26 10:37:37;;;;;;;8.20;4.10;;;;;;;22.85;32.68;101096.52;130041;1274;114837;-62
2023/05/26 10:40:50;;;;;;;13.80;4.20;;;;;;;22.76;33.50;101088.23;130135;1270;115148;-63
2023/05/26 10:43:54;;;;;;;11.30;3.40;;;;;;;22.74;33.99;101083.82;130169;1274;128840;-66
2023/05/26 10:47:04;;;;;;;16.60;3.50;;;;;;;22.66;33.15;101086.77;130086;1267;114867;-65
2023/05/26 10:50:07;;;;;;;15.70;4.80;;;;;;;22.46;33.38;101088.26;130245;1273;114783;-62
2023/05/26 10:53:18;;;;;;;8.00;3.30;;;;;;;22.41;34.12;101093.26;130176;1257;114706;-65
2023/05/26 10:56:25;;;;;;;13.00;4.60;;;;;;;22.32;33.51;101090.19;130196;1255;114697;-62
2023/05/26 10:59:33;;;;;;;9.00;3.00;;;;;;;22.25;33.38;101092.39;130313;1257;128549;-62
2023/05/26 11:02:37;;;;;;;8.60;3.60;;;;;;;22.31;33.68;101088.95;130125;1274;115180;-63
2023/05/26 11:05:39;;;;;;;14.70;4.30;;;;;;;22.35;33.50;101094.24;130238;1251;115129;-63
2023/05/26 11:08:46;;;;;;;9.00;3.30;;;;;;;22.33;33.28;101092.64;130203;1258;114709;-62
2023/05/26 11:11:59;;;;;;;9.60;3.70;;;;;;;22.28;33.55;101090.52;129975;1257;114894;-65
2023/05/26 11:15:24;;;;;;;11.20;3.20;;;;;;;22.31;34.12;101095.19;130208;1262;128778;-65
2023/05/26 11:18:26;;;;;;;11.10;4.30;;;;;;;22.40;34.59;101089.13;130145;1269;114838;-62
2023/05/26 11:21:29;;;;;;;13.00;4.10;;;;;;;22.49;34.80;101083.25;130261;1254;114706;-62
2023/05/26 11:24:32;;;;;;;10.70;3.80;;;;;;;22.56;34.82;101079.95;130329;1251;115154;-65
2023/05/26 11:27:34;;;;;;;11.70;3.50;;;;;;;22.69;35.40;101076.27;130100;1257;114781;-62
2023/05/26 11:30:36;;;;;;;8.60;3.80;;;;;;;22.93;35.14;101078.31;130277;1271;115359;-62
2023/05/26 11:33:40;;;;;;;10.80;3.60;;;;;;;23.01;34.56;101069.77;130345;1259;127944;-63
2023/05/26 11:36:51;;;;;;;12.20;4.30;;;;;;;23.06;34.30;101065.84;130362;1251;114744;-63
2023/05/26 11:39:54;;;;;;;8.10;3.40;;;;;;;23.15;34.67;101064.63;130200;1274;114917;-65
2023/05/26 11:42:56;;;;;;;8.50;3.00;;;;;;;23.16;33.79;101064.77;130305;1251;115220;-64
2023/05/26 11:46:04;;;;;;;9.40;3.10;;;;;;;22.94;33.22;101058.42;130216;1271;115123;-62
2023/05/26 11:49:13;;;;;;;11.20;4.30;;;;;;;22.85;33.38;101058.26;130311;1254;128577;-67
2023/05/26 11:52:16;;;;;;;14.90;4.00;;;;;;;22.67;33.47;101062.91;130282;1256;115205;-67
2023/05/26 11:55:19;;;;;;;11.30;3.00;;;;;;;22.51;33.49;101060.19;130446;1269;114989;-65
2023/05/26 11:58:22;;;;;;;10.10;2.80;;;;;;;22.35;33.22;101059.13;130379;1260;115332;-65
2023/05/26 12:01:27;;;;;;;9.90;3.20;;;;;;;22.22;33.05;101058.48;130266;1274;114696;-65
2023/05/26 12:04:30;;;;;;;9.60;3.60;;;;;;;22.06;32.84;101059.30;130123;1274;127720;-65
2023/05/26 12:07:34;;;;;;;9.90;2.80;;;;;;;21.88;32.88;101050.84;130228;1251;115230;-62
2023/05/26 12:10:40;;;;;;;10.50;3.50;;;;;;;21.73;33.53;101049.21;130206;1274;114702;-62
2023/05/26 12:13:43;;;;;;;10.90;4.10;;;;;;;21.60;33.60;101050.84;130079;1254;114744;-64
2023/05/26 12:16:47;;;;;;;10.70;3.50;;;;;;;21.43;33.93;101051.11;130142;1274;114785;-64
2023/05/26 12:19:49;;;;;;;13.30;3.70;;;;;;;21.30;34.08;101048.34;130141;1258;128652;-63
2023/05/26 12:23:03;;;;;;;10.80;3.50;;;;;;;21.25;33.85;101042.61;130046;1251;114768;-65
2023/05/26 12:26:15;;;;;;;13.90;4.00;;;;;;;21.28;34.20;101041.41;130197;1274;115259;-62
2023/05/26 12:29:19;;;;;;;6.80;3.30;;;;;;;21.34;33.95;101042.02;130125;1256;115168;-64
2023/05/26 12:32:21;;;;;;;8.70;3.40;;;;;;;21.37;34.66;101036.67;130161;1274;114671;-62
2023/05/26 12:35:24;;;;;;;10.70;4.20;;;;;;;21.43;34.71;101033.65;130165;1274;114816;-65
2023/05/26 12:38:27;;;;;;;13.60;4.20;;;;;;;21.49;35.45;101031.33;130283;1253;114739;-66
2023/05/26 12:41:30;;;;;;;12.30;3.30;;;;;;;21.59;35.82;101032.71;130136;1251;114734;-63
2023/05/26 12:44:32;;;;;;;12.60;3.30;;;;;;;21.72;35.80;101024.48;130247;1254;114698;-63
2023/05/26 12:47:34;;;;;;;7.00;3.20;;;;;;;21.83;35.51;101026.15;130140;1267;115093;-60
2023/05/26 12:50:37;;;;;;;10.60;3.60;;;;;;;21.96;35.57;101026.64;130183;1271;114779;-62
2023/05/26 12:53:41;;;;;;;13.20;3.50;;;;;;;22.05;35.25;101026.83;130013;1274;115073;-65
2023/05/26 12:56:44;;;;;;;8.10;3.20;;;;;;;22.08;34.15;101029.86;129873;1257;115356;-61
2023/05/26 12:59:46;;;;;;;14.10;3.10;;;;;;;21.93;32.38;101030.42;130058;1257;115231;-63
2023/05/26 13:02:48;;;;;;;5.30;3.10;;;;;;;21.77;32.30;101030.13;130178;1254;115182;-65
2023/05/26 13:05:50;;;;;;;5.90;3.10;;;;;;;21.64;30.99;101032.32;130151;1257;114805;-61
2023/05/26 13:08:53;;;;;;;7.60;3.00;;;;;;;21.51;30.55;101033.14;130206;1274;114818;-63
2023/05/26 13:11:57;;;;;;;10.20;3.10;;;;;;;21.43;31.04;101027.08;130354;1268;114703;-65
2023/05/26 13:15:00;;;;;;;4.20;2.60;;;;;;;21.36;30.82;101024.59;130188;1254;114731;-65
2023/05/26 13:18:02;;;;;;;8.90;3.10;;;;;;;21.29;30.41;101024.46;130215;1267;114840;-65
2023/05/26 13:21:06;;;;;;;10.00;3.70;;;;;;;21.22;31.52;101015.80;130368;1256;115074;-64
2023/05/26 13:24:09;;;;;;;8.90;3.10;;;;;;;21.20;32.41;101011.77;130203;1251;114743;-64
2023/05/26 13:27:12;;;;;;;12.10;3.60;;;;;;;21.22;33.19;101006.84;130153;1266;115217;-64
2023/05/26 13:30:19;;;;;;;11.40;3.70;;;;;;;21.22;33.90;101004.86;130280;1269;127598;-66
2023/05/26 13:33:23;;;;;;;9.00;3.80;;;;;;;21.24;34.41;101001.81;130201;1264;115167;-66
2023/05/26 13:36:25;;;;;;;14.10;4.10;;;;;;;21.25;34.35;101003.69;130128;1267;114705;-67
2023/05/26 13:39:27;;;;;;;11.90;4.10;;;;;;;21.22;34.71;101000.27;130502;1252;115216;-68
2023/05/26 13:42:34;;;;;;;10.90;4.00;;;;;;;21.20;34.88;101000.83;130514;1267;114782;-63
2023/05/26 13:45:36;;;;;;;9.20;3.30;;;;;;;21.21;34.94;100994.77;130383;1254;114696;-65